Time;durP1;ratioP1;P1;durP2;ratioP2;P2;SDS_P1;SDS_P2;PMS_P1;PMS_P2;Temp;Humidity;BMP_temperature;BMP_pressure;BME280_temperature;BME280_humidity;BME280_pressure;Samples;Min_cycle;Max_cycle;Signal;HPM_P1;HPM_P2
2023/12/09 00:01:54;;;;;;;8.30;4.57;;;;;;;;;;4949939;29;20055;-56
2023/12/09 00:04:20;;;;;;;10.07;4.60;;;;;;;;;;4951022;29;20047;-59
2023/12/09 00:06:47;;;;;;;9.25;4.35;;;;;;;;;;4950255;29;20051;-57
2023/12/09 00:09:14;;;;;;;6.95;3.53;;;;;;;;;;4947700;29;20435;-58
2023/12/09 00:11:41;;;;;;;8.23;3.60;;;;;;;;;;4948196;29;20043;-57
2023/12/09 00:14:07;;;;;;;10.98;3.25;;;;;;;;;;4949810;29;20047;-57
2023/12/09 00:16:34;;;;;;;7.18;3.17;;;;;;;;;;4946809;29;20055;-56
2023/12/09 00:19:00;;;;;;;9.18;3.22;;;;;;;;;;4949220;29;20534;-57
2023/12/09 00:21:27;;;;;;;9.98;3.22;;;;;;;;;;4947517;29;20042;-57
2023/12/09 00:23:53;;;;;;;5.25;2.67;;;;;;;;;;4947702;29;20050;-56
2023/12/09 00:26:19;;;;;;;8.38;2.55;;;;;;;;;;4948412;29;20054;-57
2023/12/09 00:28:45;;;;;;;11.45;3.05;;;;;;;;;;4944771;29;20062;-56
2023/12/09 00:31:11;;;;;;;6.20;2.83;;;;;;;;;;4945968;29;20039;-57
2023/12/09 00:33:37;;;;;;;7.85;2.40;;;;;;;;;;4946702;29;20150;-61
2023/12/09 00:36:04;;;;;;;10.45;2.42;;;;;;;;;;4947188;29;20035;-58
2023/12/09 00:38:30;;;;;;;6.28;2.45;;;;;;;;;;4945558;29;20059;-56
2023/12/09 00:40:56;;;;;;;8.15;3.08;;;;;;;;;;4947126;29;20031;-55
2023/12/09 00:43:22;;;;;;;5.85;2.75;;;;;;;;;;4947191;29;20062;-59
2023/12/09 00:45:48;;;;;;;5.38;2.50;;;;;;;;;;4945941;29;20035;-57
2023/12/09 00:48:14;;;;;;;9.00;2.33;;;;;;;;;;4944303;29;20392;-60
2023/12/09 00:50:40;;;;;;;10.30;2.50;;;;;;;;;;4945498;29;20376;-60
2023/12/09 00:53:06;;;;;;;5.43;2.13;;;;;;;;;;4929753;29;20115;-58
2023/12/09 00:55:32;;;;;;;5.55;2.17;;;;;;;;;;4945707;29;20427;-57
2023/12/09 00:57:59;;;;;;;6.25;2.13;;;;;;;;;;4944136;29;20506;-56
2023/12/09 01:00:25;;;;;;;10.82;2.17;;;;;;;;;;4944748;29;20111;-57
2023/12/09 01:02:51;;;;;;;6.55;1.80;;;;;;;;;;4946829;29;20066;-54
2023/12/09 01:05:18;;;;;;;10.13;2.88;;;;;;;;;;4946631;29;20043;-57
2023/12/09 01:07:44;;;;;;;5.32;2.17;;;;;;;;;;4945017;29;20074;-55
2023/12/09 01:10:10;;;;;;;6.82;2.83;;;;;;;;;;4947594;29;20035;-56
2023/12/09 01:12:36;;;;;;;9.07;2.50;;;;;;;;;;4946018;29;20044;-53
2023/12/09 01:15:03;;;;;;;10.00;3.30;;;;;;;;;;4944705;29;20059;-56
2023/12/09 01:17:30;;;;;;;5.88;2.50;;;;;;;;;;4944715;29;20075;-55
2023/12/09 01:19:56;;;;;;;6.78;2.28;;;;;;;;;;4947400;29;20039;-55
2023/12/09 01:22:22;;;;;;;8.88;2.95;;;;;;;;;;4947167;29;20031;-54
2023/12/09 01:24:49;;;;;;;7.65;2.33;;;;;;;;;;4947781;29;20337;-55
2023/12/09 01:27:15;;;;;;;4.13;2.45;;;;;;;;;;4946749;29;20051;-55
2023/12/09 01:29:41;;;;;;;6.65;2.30;;;;;;;;;;4947104;29;20435;-57
2023/12/09 01:32:07;;;;;;;7.25;2.13;;;;;;;;;;4945588;29;20043;-57
2023/12/09 01:34:34;;;;;;;7.88;2.67;;;;;;;;;;4948892;28;20051;-57
2023/12/09 01:37:00;;;;;;;6.90;2.70;;;;;;;;;;4949691;29;20131;-57
2023/12/09 01:39:27;;;;;;;5.03;2.40;;;;;;;;;;4950630;29;20043;-55
2023/12/09 01:41:53;;;;;;;6.80;1.73;;;;;;;;;;4951577;29;20055;-56
2023/12/09 01:44:19;;;;;;;6.03;2.47;;;;;;;;;;4952499;29;20042;-58
2023/12/09 01:46:46;;;;;;;6.60;2.47;;;;;;;;;;4947138;29;20098;-56
2023/12/09 01:49:13;;;;;;;5.63;1.75;;;;;;;;;;4935897;29;20039;-55
2023/12/09 01:51:41;;;;;;;6.47;2.28;;;;;;;;;;4953578;29;20035;-56
2023/12/09 01:54:08;;;;;;;8.15;2.50;;;;;;;;;;4949463;29;20055;-57
2023/12/09 01:56:35;;;;;;;6.10;2.30;;;;;;;;;;4950971;29;20047;-57
2023/12/09 01:59:02;;;;;;;8.93;2.30;;;;;;;;;;4950973;29;20292;-55
2023/12/09 02:01:31;;;;;;;6.50;2.17;;;;;;;;;;4951467;29;20059;-56
2023/12/09 02:03:58;;;;;;;10.05;3.05;;;;;;;;;;4951422;28;20044;-57
2023/12/09 02:06:24;;;;;;;9.65;2.80;;;;;;;;;;4952920;29;20043;-58
2023/12/09 02:08:50;;;;;;;8.50;2.58;;;;;;;;;;4931862;29;20400;-54
2023/12/09 02:11:31;;;;;;;9.68;3.20;;;;;;;;;;4950549;29;20042;-55
2023/12/09 02:14:07;;;;;;;9.00;2.90;;;;;;;;;;4951140;29;20043;-57
2023/12/09 02:16:56;;;;;;;11.82;2.72;;;;;;;;;;4952057;29;20054;-58
2023/12/09 02:19:23;;;;;;;7.78;2.97;;;;;;;;;;4941097;29;20062;-55
2023/12/09 02:22:06;;;;;;;8.63;2.85;;;;;;;;;;4952988;29;20039;-59
2023/12/09 02:24:33;;;;;;;8.20;3.00;;;;;;;;;;4950619;29;20379;-56
2023/12/09 02:27:11;;;;;;;9.38;3.22;;;;;;;;;;4951521;29;20035;-59
2023/12/09 02:29:52;;;;;;;7.97;2.75;;;;;;;;;;4949246;29;20070;-56
2023/12/09 02:32:23;;;;;;;19.02;3.47;;;;;;;;;;4952018;29;20383;-58
2023/12/09 02:34:51;;;;;;;13.63;2.60;;;;;;;;;;4950917;29;20479;-55
2023/12/09 02:37:19;;;;;;;10.43;2.65;;;;;;;;;;4949094;29;20051;-57
2023/12/09 02:39:46;;;;;;;7.35;2.72;;;;;;;;;;4950359;29;20553;-56
2023/12/09 02:42:13;;;;;;;8.25;2.72;;;;;;;;;;4951825;29;20046;-57
2023/12/09 02:44:42;;;;;;;5.85;2.20;;;;;;;;;;4947426;28;20066;-56
2023/12/09 02:47:14;;;;;;;6.57;2.30;;;;;;;;;;4949218;29;20503;-57
2023/12/09 02:49:41;;;;;;;11.07;3.60;;;;;;;;;;4949847;29;20062;-57
2023/12/09 02:52:07;;;;;;;14.07;2.92;;;;;;;;;;4948100;29;20143;-57
2023/12/09 02:54:33;;;;;;;7.05;2.72;;;;;;;;;;4949749;29;20066;-57
2023/12/09 02:56:59;;;;;;;12.50;2.53;;;;;;;;;;4949280;29;20051;-57
2023/12/09 02:59:28;;;;;;;6.13;2.47;;;;;;;;;;4949285;29;20046;-57
2023/12/09 03:01:55;;;;;;;6.87;2.40;;;;;;;;;;4951187;29;20047;-58
2023/12/09 03:04:21;;;;;;;8.20;2.88;;;;;;;;;;4949982;29;20058;-57
2023/12/09 03:06:47;;;;;;;8.57;3.10;;;;;;;;;;4950961;29;20046;-55
2023/12/09 03:09:13;;;;;;;11.68;2.97;;;;;;;;;;4951846;29;20630;-56
2023/12/09 03:11:39;;;;;;;8.10;2.40;;;;;;;;;;4950554;29;20399;-57
2023/12/09 03:14:05;;;;;;;6.03;2.40;;;;;;;;;;4946030;29;20481;-56
2023/12/09 03:16:31;;;;;;;5.60;2.67;;;;;;;;;;4946520;29;20058;-57
2023/12/09 03:18:57;;;;;;;9.43;2.92;;;;;;;;;;4951944;29;20039;-56
2023/12/09 03:21:23;;;;;;;5.43;2.63;;;;;;;;;;4950712;29;20039;-57
2023/12/09 03:23:49;;;;;;;9.00;2.65;;;;;;;;;;4948074;29;20051;-55
2023/12/09 03:26:16;;;;;;;4.97;2.30;;;;;;;;;;4951897;29;20023;-56
2023/12/09 03:28:43;;;;;;;8.50;2.50;;;;;;;;;;4949154;29;20062;-57
2023/12/09 03:31:13;;;;;;;18.90;2.80;;;;;;;;;;4950973;29;20047;-57
2023/12/09 03:33:40;;;;;;;10.43;3.13;;;;;;;;;;4947156;29;20051;-58
2023/12/09 03:36:08;;;;;;;15.23;2.60;;;;;;;;;;4949729;29;20050;-59
2023/12/09 03:38:34;;;;;;;8.07;2.75;;;;;;;;;;4950310;29;20399;-57
2023/12/09 03:41:06;;;;;;;14.95;2.75;;;;;;;;;;4948494;29;20380;-56
2023/12/09 03:43:32;;;;;;;7.85;2.15;;;;;;;;;;4949577;29;20467;-57
2023/12/09 03:45:59;;;;;;;8.77;2.40;;;;;;;;;;4949212;29;20031;-57
2023/12/09 03:48:25;;;;;;;7.00;2.03;;;;;;;;;;4950414;29;20039;-57
2023/12/09 03:50:51;;;;;;;5.80;2.10;;;;;;;;;;4948160;29;20035;-57
2023/12/09 03:53:18;;;;;;;11.18;2.50;;;;;;;;;;4951592;29;20503;-60
2023/12/09 03:55:44;;;;;;;10.48;2.45;;;;;;;;;;4949977;28;20051;-56
2023/12/09 03:58:11;;;;;;;10.20;2.28;;;;;;;;;;4950804;29;20039;-55
2023/12/09 04:00:37;;;;;;;9.43;2.20;;;;;;;;;;4936375;29;20034;-58
2023/12/09 04:03:03;;;;;;;7.30;1.80;;;;;;;;;;4949363;29;20047;-55
2023/12/09 04:05:29;;;;;;;10.88;2.08;;;;;;;;;;4948524;29;20055;-57
2023/12/09 04:07:55;;;;;;;7.13;1.90;;;;;;;;;;4950484;28;20047;-57
2023/12/09 04:10:22;;;;;;;6.80;2.35;;;;;;;;;;4948559;29;20051;-58
2023/12/09 04:12:48;;;;;;;13.52;2.30;;;;;;;;;;4947891;29;20051;-58
2023/12/09 04:15:14;;;;;;;8.65;2.70;;;;;;;;;;4947722;29;20047;-57
2023/12/09 04:17:40;;;;;;;6.28;2.13;;;;;;;;;;4945216;29;20035;-56
2023/12/09 04:20:08;;;;;;;12.98;4.70;;;;;;;;;;4948230;29;20069;-55
2023/12/09 04:22:38;;;;;;;9.70;2.55;;;;;;;;;;4950564;29;20066;-56
2023/12/09 04:25:06;;;;;;;6.47;2.20;;;;;;;;;;4949353;29;20055;-57
2023/12/09 04:27:32;;;;;;;11.43;4.90;;;;;;;;;;4948630;29;20055;-56
2023/12/09 04:30:00;;;;;;;13.63;3.60;;;;;;;;;;4950326;29;20035;-57
2023/12/09 04:32:29;;;;;;;11.82;4.40;;;;;;;;;;4949896;29;20056;-58
2023/12/09 04:34:56;;;;;;;8.68;3.15;;;;;;;;;;4948072;29;20058;-55
2023/12/09 04:37:22;;;;;;;8.57;3.10;;;;;;;;;;4946462;29;20047;-55
2023/12/09 04:39:49;;;;;;;12.77;3.10;;;;;;;;;;4945283;29;20533;-58
2023/12/09 04:42:15;;;;;;;8.82;3.33;;;;;;;;;;4949245;29;20490;-57
2023/12/09 04:44:41;;;;;;;12.40;4.65;;;;;;;;;;4947331;29;20407;-56
2023/12/09 04:47:07;;;;;;;13.70;4.95;;;;;;;;;;4949775;29;20047;-56
2023/12/09 04:49:33;;;;;;;9.68;3.85;;;;;;;;;;4947901;29;20364;-57
2023/12/09 04:51:59;;;;;;;8.25;3.03;;;;;;;;;;4950541;29;20051;-56
2023/12/09 04:54:25;;;;;;;9.68;3.03;;;;;;;;;;4949500;29;20062;-55
2023/12/09 04:56:52;;;;;;;11.18;3.42;;;;;;;;;;4946413;29;20062;-58
2023/12/09 04:59:18;;;;;;;10.93;4.78;;;;;;;;;;4949248;29;20055;-56
2023/12/09 05:01:45;;;;;;;11.60;3.45;;;;;;;;;;4946070;29;20055;-55
2023/12/09 05:04:11;;;;;;;10.65;3.30;;;;;;;;;;4950088;29;20043;-56
2023/12/09 05:06:37;;;;;;;8.10;2.95;;;;;;;;;;4928348;29;20047;-57
2023/12/09 05:09:03;;;;;;;8.85;3.25;;;;;;;;;;4951249;28;20031;-54
2023/12/09 05:11:30;;;;;;;14.13;4.93;;;;;;;;;;4950285;29;20039;-56
2023/12/09 05:13:56;;;;;;;11.18;3.33;;;;;;;;;;4951778;29;20509;-57
2023/12/09 05:16:22;;;;;;;6.25;3.13;;;;;;;;;;4953849;29;20120;-57
2023/12/09 05:18:48;;;;;;;10.88;3.00;;;;;;;;;;4954382;29;20054;-58
2023/12/09 05:21:14;;;;;;;6.78;2.95;;;;;;;;;;4953262;29;20047;-57
2023/12/09 05:23:41;;;;;;;8.95;3.10;;;;;;;;;;4954233;29;20047;-58
2023/12/09 05:26:07;;;;;;;9.40;2.92;;;;;;;;;;4953680;29;20491;-57
2023/12/09 05:28:33;;;;;;;7.95;3.00;;;;;;;;;;4954056;29;20039;-58
2023/12/09 05:31:05;;;;;;;15.90;5.60;;;;;;;;;;4953401;29;20127;-57
2023/12/09 05:33:31;;;;;;;14.63;5.07;;;;;;;;;;4954064;29;20043;-57
2023/12/09 05:35:57;;;;;;;6.45;2.97;;;;;;;;;;4952687;29;20402;-53
2023/12/09 05:38:23;;;;;;;10.05;3.15;;;;;;;;;;4954001;29;20127;-57
2023/12/09 05:40:49;;;;;;;7.53;2.92;;;;;;;;;;4953496;29;20042;-55
2023/12/09 05:43:15;;;;;;;7.05;2.60;;;;;;;;;;4953734;29;20066;-56
2023/12/09 05:45:41;;;;;;;7.18;2.85;;;;;;;;;;4952871;29;20061;-56
2023/12/09 05:48:07;;;;;;;8.70;4.03;;;;;;;;;;4949828;29;20543;-57
2023/12/09 05:50:33;;;;;;;5.28;3.10;;;;;;;;;;4952988;29;20430;-56
2023/12/09 05:53:00;;;;;;;9.07;3.70;;;;;;;;;;4949435;29;20051;-55
2023/12/09 05:55:26;;;;;;;8.10;3.65;;;;;;;;;;4952407;29;20058;-58
2023/12/09 05:57:52;;;;;;;7.22;2.90;;;;;;;;;;4951430;29;20384;-58
2023/12/09 06:00:18;;;;;;;8.50;3.65;;;;;;;;;;4951945;29;20038;-57
2023/12/09 06:02:44;;;;;;;9.45;3.95;;;;;;;;;;4948517;29;20058;-57
2023/12/09 06:05:10;;;;;;;9.10;3.85;;;;;;;;;;4950605;29;20487;-57
2023/12/09 06:07:36;;;;;;;7.55;3.95;;;;;;;;;;4951561;29;20051;-55
2023/12/09 06:10:05;;;;;;;10.75;4.15;;;;;;;;;;4949688;28;20051;-55
2023/12/09 06:12:32;;;;;;;9.13;4.10;;;;;;;;;;4953375;29;20459;-57
2023/12/09 06:14:58;;;;;;;11.02;4.57;;;;;;;;;;4951837;29;20043;-56
2023/12/09 06:17:24;;;;;;;9.55;3.92;;;;;;;;;;4947790;29;20145;-56
2023/12/09 06:19:50;;;;;;;9.32;4.40;;;;;;;;;;4952800;28;20050;-58
2023/12/09 06:22:16;;;;;;;7.80;3.97;;;;;;;;;;4948214;29;20043;-56
2023/12/09 06:24:43;;;;;;;8.13;3.60;;;;;;;;;;4952600;29;20794;-57
2023/12/09 06:27:10;;;;;;;8.10;3.65;;;;;;;;;;4950976;29;20051;-58
2023/12/09 06:29:37;;;;;;;7.70;3.30;;;;;;;;;;4952182;29;20039;-57
2023/12/09 06:32:04;;;;;;;6.88;3.65;;;;;;;;;;4950937;29;20451;-57
2023/12/09 06:34:30;;;;;;;9.63;4.82;;;;;;;;;;4952703;29;20070;-56
2023/12/09 06:36:56;;;;;;;7.38;4.10;;;;;;;;;;4949669;29;20040;-59
2023/12/09 06:39:22;;;;;;;11.38;5.13;;;;;;;;;;4952230;28;20088;-55
2023/12/09 06:41:48;;;;;;;7.78;4.30;;;;;;;;;;4947419;29;20051;-55
2023/12/09 06:44:15;;;;;;;9.93;4.22;;;;;;;;;;4950329;29;20034;-58
2023/12/09 06:46:41;;;;;;;9.57;4.43;;;;;;;;;;4949126;29;20046;-59
2023/12/09 06:49:07;;;;;;;7.97;4.60;;;;;;;;;;4952916;29;20143;-57
2023/12/09 06:51:33;;;;;;;12.00;4.00;;;;;;;;;;4950368;29;20051;-57
2023/12/09 06:54:00;;;;;;;8.02;4.15;;;;;;;;;;4952794;29;20070;-56
2023/12/09 06:56:26;;;;;;;7.78;4.00;;;;;;;;;;4949550;29;20059;-56
2023/12/09 06:58:52;;;;;;;8.38;4.80;;;;;;;;;;4950814;29;20038;-56
2023/12/09 07:01:23;;;;;;;10.80;5.38;;;;;;;;;;4950255;29;20503;-56
2023/12/09 07:03:50;;;;;;;8.88;4.68;;;;;;;;;;4947305;29;20047;-56
2023/12/09 07:06:17;;;;;;;7.07;4.20;;;;;;;;;;4949375;29;20042;-58
2023/12/09 07:08:44;;;;;;;8.48;4.35;;;;;;;;;;4949719;29;20027;-56
2023/12/09 07:11:10;;;;;;;9.25;4.63;;;;;;;;;;4951150;29;20051;-56
2023/12/09 07:13:38;;;;;;;9.75;4.40;;;;;;;;;;4951842;29;20070;-58
2023/12/09 07:16:08;;;;;;;10.40;4.70;;;;;;;;;;4947480;29;20051;-56
2023/12/09 07:18:34;;;;;;;8.35;4.03;;;;;;;;;;4951292;29;20047;-58
2023/12/09 07:21:01;;;;;;;9.15;4.13;;;;;;;;;;4951255;29;20034;-58
2023/12/09 07:23:27;;;;;;;9.55;4.65;;;;;;;;;;4951466;29;20078;-55
2023/12/09 07:25:55;;;;;;;8.43;4.88;;;;;;;;;;4950635;29;20145;-56
2023/12/09 07:28:21;;;;;;;15.88;4.63;;;;;;;;;;4946992;29;20031;-56
2023/12/09 07:30:47;;;;;;;10.48;3.80;;;;;;;;;;4950471;28;20050;-56
2023/12/09 07:33:13;;;;;;;10.93;3.70;;;;;;;;;;4948641;29;20050;-56
2023/12/09 07:35:39;;;;;;;4.22;2.60;;;;;;;;;;4949727;29;20054;-56
2023/12/09 07:38:06;;;;;;;3.80;2.50;;;;;;;;;;4944994;29;20054;-57
2023/12/09 07:40:32;;;;;;;6.00;2.83;;;;;;;;;;4944728;29;20058;-57
2023/12/09 07:42:58;;;;;;;7.40;3.40;;;;;;;;;;4950903;29;20399;-56
2023/12/09 07:45:24;;;;;;;4.10;2.35;;;;;;;;;;4948782;29;20460;-57
2023/12/09 07:47:50;;;;;;;9.05;2.58;;;;;;;;;;4951465;29;20031;-59
2023/12/09 07:50:17;;;;;;;6.30;2.42;;;;;;;;;;4950477;29;20051;-57
2023/12/09 07:52:43;;;;;;;5.32;2.90;;;;;;;;;;4950490;29;20055;-58
2023/12/09 07:55:10;;;;;;;4.28;2.70;;;;;;;;;;4951932;29;20042;-56
2023/12/09 07:57:36;;;;;;;4.50;3.05;;;;;;;;;;4950579;29;20039;-59
2023/12/09 08:00:03;;;;;;;8.05;3.35;;;;;;;;;;4951554;29;20040;-56
2023/12/09 08:02:31;;;;;;;6.93;2.80;;;;;;;;;;4950828;29;20415;-57
2023/12/09 08:04:57;;;;;;;7.38;2.95;;;;;;;;;;4949002;29;20051;-58
2023/12/09 08:07:23;;;;;;;5.55;2.75;;;;;;;;;;4950451;29;20062;-58
2023/12/09 08:09:49;;;;;;;3.88;1.83;;;;;;;;;;4950959;28;20050;-57
2023/12/09 08:12:15;;;;;;;3.40;2.53;;;;;;;;;;4951421;29;20043;-58
2023/12/09 08:14:41;;;;;;;5.53;2.83;;;;;;;;;;4950880;29;20519;-55
2023/12/09 08:17:08;;;;;;;5.60;2.17;;;;;;;;;;4949964;29;20435;-59
2023/12/09 08:19:34;;;;;;;3.83;2.20;;;;;;;;;;4948613;29;20054;-57
2023/12/09 08:22:00;;;;;;;5.82;3.22;;;;;;;;;;4947783;29;20135;-57
2023/12/09 08:24:27;;;;;;;11.77;4.18;;;;;;;;;;4950980;29;20058;-56
2023/12/09 08:26:54;;;;;;;9.70;4.43;;;;;;;;;;4948108;29;20066;-56
2023/12/09 08:29:21;;;;;;;8.05;3.08;;;;;;;;;;4949583;29;20035;-57
2023/12/09 08:31:49;;;;;;;8.48;3.17;;;;;;;;;;4944662;29;20059;-57
2023/12/09 08:34:16;;;;;;;7.18;4.03;;;;;;;;;;4950915;29;20086;-57
2023/12/09 08:36:42;;;;;;;12.48;3.88;;;;;;;;;;4948164;29;20138;-57
2023/12/09 08:39:09;;;;;;;6.50;3.00;;;;;;;;;;4946940;29;20048;-55
2023/12/09 08:41:35;;;;;;;6.32;3.75;;;;;;;;;;4950015;29;20419;-56
2023/12/09 08:44:03;;;;;;;5.93;2.78;;;;;;;;;;4954591;28;20146;-57
2023/12/09 08:46:32;;;;;;;5.07;3.42;;;;;;;;;;4949567;29;20680;-55
2023/12/09 08:48:58;;;;;;;6.53;3.13;;;;;;;;;;4951193;29;20039;-56
2023/12/09 08:51:24;;;;;;;4.50;2.40;;;;;;;;;;4953728;29;20055;-57
2023/12/09 08:53:50;;;;;;;5.05;2.85;;;;;;;;;;4954067;29;20066;-57
2023/12/09 08:56:16;;;;;;;3.55;2.15;;;;;;;;;;4953901;29;20031;-58
2023/12/09 08:58:42;;;;;;;6.40;2.20;;;;;;;;;;4952146;29;20051;-56
2023/12/09 09:01:09;;;;;;;4.95;2.55;;;;;;;;;;4952494;29;20039;-56
2023/12/09 09:03:35;;;;;;;2.83;1.73;;;;;;;;;;4952625;29;20080;-58
2023/12/09 09:06:01;;;;;;;4.38;2.40;;;;;;;;;;4951597;29;20051;-55
2023/12/09 09:08:27;;;;;;;4.22;2.30;;;;;;;;;;4948055;29;20110;-56
2023/12/09 09:10:53;;;;;;;4.97;2.30;;;;;;;;;;4950961;29;20383;-57
2023/12/09 09:13:19;;;;;;;4.32;2.03;;;;;;;;;;4949586;29;20069;-56
2023/12/09 09:15:45;;;;;;;4.03;2.60;;;;;;;;;;4954170;29;20050;-56
2023/12/09 09:18:13;;;;;;;5.07;2.55;;;;;;;;;;4949175;29;20063;-56
2023/12/09 09:20:42;;;;;;;3.88;2.60;;;;;;;;;;4953176;29;20046;-57
2023/12/09 09:23:10;;;;;;;3.17;2.03;;;;;;;;;;4952368;29;20038;-56
2023/12/09 09:25:36;;;;;;;4.93;2.88;;;;;;;;;;4951753;29;20578;-58
2023/12/09 09:28:05;;;;;;;5.28;3.10;;;;;;;;;;4951487;29;20522;-57
2023/12/09 09:30:31;;;;;;;5.60;2.78;;;;;;;;;;4953886;28;20519;-55
2023/12/09 09:32:58;;;;;;;6.18;3.03;;;;;;;;;;4953417;29;20050;-55
2023/12/09 09:35:24;;;;;;;7.80;4.05;;;;;;;;;;4953072;29;20039;-57
2023/12/09 09:37:50;;;;;;;6.32;3.10;;;;;;;;;;4951698;29;20817;-52
2023/12/09 09:40:17;;;;;;;7.65;4.93;;;;;;;;;;4949966;29;20134;-58
2023/12/09 09:42:51;;;;;;;7.00;4.32;;;;;;;;;;4953269;29;20043;-54
2023/12/09 09:45:20;;;;;;;6.00;2.92;;;;;;;;;;4950070;29;20364;-56
2023/12/09 09:47:50;;;;;;;7.68;4.05;;;;;;;;;;4949285;29;20055;-55
2023/12/09 09:50:21;;;;;;;6.32;3.20;;;;;;;;;;4953207;29;20050;-56
2023/12/09 09:52:48;;;;;;;8.57;4.50;;;;;;;;;;4947501;29;20557;-56
2023/12/09 09:55:16;;;;;;;10.13;5.05;;;;;;;;;;4951898;28;20065;-57
2023/12/09 09:57:43;;;;;;;5.90;3.15;;;;;;;;;;4950427;29;20050;-57
2023/12/09 10:00:14;;;;;;;8.32;4.18;;;;;;;;;;4948932;29;20047;-57
2023/12/09 10:02:45;;;;;;;8.00;4.07;;;;;;;;;;4951413;29;20423;-57
2023/12/09 10:05:13;;;;;;;5.72;3.10;;;;;;;;;;4952322;29;20031;-56
2023/12/09 10:07:40;;;;;;;7.18;3.05;;;;;;;;;;4952306;29;20040;-57
2023/12/09 10:10:07;;;;;;;4.70;2.60;;;;;;;;;;4952205;29;20047;-55
2023/12/09 10:12:34;;;;;;;4.88;2.58;;;;;;;;;;4950834;29;20419;-56
2023/12/09 10:15:01;;;;;;;4.75;2.65;;;;;;;;;;4948031;29;20074;-56
2023/12/09 10:17:28;;;;;;;5.15;3.08;;;;;;;;;;4952481;29;20059;-57
2023/12/09 10:19:55;;;;;;;5.55;3.15;;;;;;;;;;4950416;29;20051;-55
2023/12/09 10:22:22;;;;;;;4.85;2.80;;;;;;;;;;4952020;29;20035;-56
2023/12/09 10:24:49;;;;;;;5.13;3.08;;;;;;;;;;4953393;29;20043;-56
2023/12/09 10:27:19;;;;;;;4.78;2.40;;;;;;;;;;4952309;29;20058;-57
2023/12/09 10:29:45;;;;;;;5.18;3.05;;;;;;;;;;4951992;28;20574;-58
2023/12/09 10:32:12;;;;;;;5.53;2.92;;;;;;;;;;4950276;29;20742;-56
2023/12/09 10:34:39;;;;;;;6.57;3.80;;;;;;;;;;4951186;29;20043;-56
2023/12/09 10:37:08;;;;;;;5.43;2.95;;;;;;;;;;4952028;29;20507;-57
2023/12/09 10:39:34;;;;;;;5.10;3.20;;;;;;;;;;4951483;29;20546;-56
2023/12/09 10:42:00;;;;;;;4.13;2.72;;;;;;;;;;4952289;29;20302;-57
2023/12/09 10:44:26;;;;;;;5.05;2.90;;;;;;;;;;4951976;29;20038;-56
2023/12/09 10:46:52;;;;;;;5.35;3.10;;;;;;;;;;4951317;29;20055;-57
2023/12/09 10:49:19;;;;;;;6.03;3.15;;;;;;;;;;4949773;29;20054;-55
2023/12/09 10:51:45;;;;;;;5.30;3.38;;;;;;;;;;4951728;29;20051;-55
2023/12/09 10:54:11;;;;;;;6.13;3.45;;;;;;;;;;4950605;29;20158;-56
2023/12/09 10:56:37;;;;;;;4.82;3.05;;;;;;;;;;4951833;29;20063;-55
2023/12/09 10:59:04;;;;;;;4.55;2.92;;;;;;;;;;4951633;29;20051;-56
2023/12/09 11:01:30;;;;;;;5.93;3.40;;;;;;;;;;4951053;29;20058;-57
2023/12/09 11:03:58;;;;;;;15.63;7.25;;;;;;;;;;4949194;29;20051;-56
2023/12/09 11:06:29;;;;;;;6.00;3.53;;;;;;;;;;4946616;28;20058;-56
2023/12/09 11:08:56;;;;;;;7.80;3.20;;;;;;;;;;4947365;29;20051;-56
2023/12/09 11:11:23;;;;;;;4.22;2.60;;;;;;;;;;4950722;29;20411;-58
2023/12/09 11:13:49;;;;;;;6.32;3.60;;;;;;;;;;4951674;29;20059;-57
2023/12/09 11:16:18;;;;;;;7.85;3.88;;;;;;;;;;4951246;29;20447;-55
2023/12/09 11:18:53;;;;;;;11.90;5.07;;;;;;;;;;4951098;29;20031;-56
2023/12/09 11:21:21;;;;;;;8.05;4.10;;;;;;;;;;4945229;29;20503;-55
2023/12/09 11:23:50;;;;;;;9.73;4.18;;;;;;;;;;4951408;29;20530;-55
2023/12/09 11:26:21;;;;;;;8.85;4.32;;;;;;;;;;4951892;29;20038;-56
2023/12/09 11:29:00;;;;;;;10.27;4.20;;;;;;;;;;4951377;29;20058;-57
2023/12/09 11:31:48;;;;;;;4.85;3.20;;;;;;;;;;4934478;29;20503;-57
2023/12/09 11:34:18;;;;;;;5.82;3.00;;;;;;;;;;4951786;29;20039;-55
2023/12/09 11:36:46;;;;;;;7.63;3.42;;;;;;;;;;4950696;29;20039;-57
2023/12/09 11:39:14;;;;;;;5.65;2.90;;;;;;;;;;4946637;29;20059;-55
2023/12/09 11:41:41;;;;;;;6.38;4.00;;;;;;;;;;4950720;29;20039;-55
2023/12/09 11:44:08;;;;;;;5.50;3.05;;;;;;;;;;4941162;29;20048;-52
2023/12/09 11:46:35;;;;;;;5.22;2.80;;;;;;;;;;4926936;29;20058;-55
2023/12/09 11:49:03;;;;;;;6.10;3.47;;;;;;;;;;4947572;29;20034;-55
2023/12/09 11:51:30;;;;;;;6.20;3.53;;;;;;;;;;4946862;29;20034;-56
2023/12/09 11:54:01;;;;;;;6.35;3.28;;;;;;;;;;4948648;29;20100;-55
2023/12/09 11:56:28;;;;;;;7.65;3.67;;;;;;;;;;4945443;29;20508;-58
2023/12/09 11:58:55;;;;;;;5.85;3.33;;;;;;;;;;4946542;29;20399;-59
2023/12/09 12:01:22;;;;;;;7.15;3.40;;;;;;;;;;4945413;29;20047;-55
2023/12/09 12:03:49;;;;;;;7.28;3.80;;;;;;;;;;4947217;29;20047;-57
2023/12/09 12:06:16;;;;;;;5.65;3.30;;;;;;;;;;4942712;29;20146;-56
2023/12/09 12:08:50;;;;;;;7.60;3.50;;;;;;;;;;4942200;29;20427;-56
2023/12/09 12:11:17;;;;;;;8.35;3.50;;;;;;;;;;4944168;29;20051;-55
2023/12/09 12:13:44;;;;;;;6.97;3.60;;;;;;;;;;4944996;29;20039;-56
2023/12/09 12:16:11;;;;;;;7.28;3.95;;;;;;;;;;4941387;29;20065;-57
2023/12/09 12:18:37;;;;;;;7.32;4.20;;;;;;;;;;4946168;28;20399;-57
2023/12/09 12:21:07;;;;;;;8.00;4.28;;;;;;;;;;4944897;29;20050;-57
2023/12/09 12:23:33;;;;;;;7.32;3.78;;;;;;;;;;4943497;29;20511;-55
2023/12/09 12:26:00;;;;;;;8.40;4.07;;;;;;;;;;4945980;29;20380;-56
2023/12/09 12:28:26;;;;;;;11.35;3.15;;;;;;;;;;4930239;29;20039;-54
2023/12/09 12:30:54;;;;;;;5.13;2.80;;;;;;;;;;4946254;29;20079;-57
2023/12/09 12:33:30;;;;;;;5.32;2.92;;;;;;;;;;4945228;29;20048;-55
2023/12/09 12:35:58;;;;;;;5.65;3.50;;;;;;;;;;4947143;29;20034;-57
2023/12/09 12:38:25;;;;;;;6.65;3.25;;;;;;;;;;4945393;29;20486;-55
2023/12/09 12:40:54;;;;;;;5.40;2.80;;;;;;;;;;4946470;29;20039;-56
2023/12/09 12:43:20;;;;;;;6.45;3.53;;;;;;;;;;4943625;29;20108;-57
2023/12/09 12:45:51;;;;;;;6.05;3.10;;;;;;;;;;4943514;29;20059;-55
2023/12/09 12:48:18;;;;;;;8.13;4.00;;;;;;;;;;4947714;29;20423;-58
2023/12/09 12:50:49;;;;;;;6.30;3.47;;;;;;;;;;4950176;29;20043;-56
2023/12/09 12:53:20;;;;;;;7.32;3.88;;;;;;;;;;4949666;29;20048;-58
2023/12/09 12:55:46;;;;;;;6.10;3.22;;;;;;;;;;4950231;29;20058;-57
2023/12/09 12:58:12;;;;;;;6.47;3.50;;;;;;;;;;4948432;29;20059;-54
2023/12/09 13:00:39;;;;;;;5.82;3.10;;;;;;;;;;4947836;29;20418;-55
2023/12/09 13:03:06;;;;;;;6.00;3.55;;;;;;;;;;4950572;29;20093;-56
2023/12/09 13:05:33;;;;;;;7.35;3.72;;;;;;;;;;4950227;29;20051;-55
2023/12/09 13:07:59;;;;;;;5.95;3.63;;;;;;;;;;4949058;29;20043;-58
2023/12/09 13:10:25;;;;;;;7.03;3.63;;;;;;;;;;4947569;29;20984;-58
2023/12/09 13:12:52;;;;;;;5.95;3.20;;;;;;;;;;4930979;29;20040;-56
2023/12/09 13:15:18;;;;;;;5.35;3.08;;;;;;;;;;4941782;29;20047;-55
2023/12/09 13:17:45;;;;;;;7.25;3.75;;;;;;;;;;4949722;29;20054;-55
2023/12/09 13:20:11;;;;;;;5.75;3.20;;;;;;;;;;4945353;29;20510;-57
2023/12/09 13:22:37;;;;;;;6.32;3.70;;;;;;;;;;4949865;28;20423;-58
2023/12/09 13:25:04;;;;;;;5.82;3.67;;;;;;;;;;4949946;29;20062;-55
2023/12/09 13:27:31;;;;;;;5.93;3.20;;;;;;;;;;4950438;29;20471;-57
2023/12/09 13:29:59;;;;;;;5.88;3.53;;;;;;;;;;4949626;28;20055;-56
2023/12/09 13:32:26;;;;;;;5.22;3.20;;;;;;;;;;4953601;28;20055;-55
2023/12/09 13:34:52;;;;;;;5.90;3.45;;;;;;;;;;4952751;29;20404;-58
2023/12/09 13:37:18;;;;;;;5.45;3.10;;;;;;;;;;4951953;29;20051;-59
2023/12/09 13:39:44;;;;;;;5.18;3.20;;;;;;;;;;4950602;29;20052;-58
2023/12/09 13:42:12;;;;;;;6.18;3.55;;;;;;;;;;4952452;29;20051;-57
2023/12/09 13:44:38;;;;;;;5.78;3.28;;;;;;;;;;4950615;29;20055;-58
2023/12/09 13:47:05;;;;;;;6.15;3.28;;;;;;;;;;4953600;29;20035;-56
2023/12/09 13:49:31;;;;;;;5.50;3.38;;;;;;;;;;4951307;29;20050;-56
2023/12/09 13:51:57;;;;;;;5.43;3.35;;;;;;;;;;4951207;29;20062;-57
2023/12/09 13:54:24;;;;;;;7.50;3.90;;;;;;;;;;4951932;29;20047;-57
2023/12/09 13:56:50;;;;;;;5.75;3.70;;;;;;;;;;4949911;29;20058;-55
2023/12/09 13:59:17;;;;;;;6.10;3.78;;;;;;;;;;4951147;29;20043;-55
2023/12/09 14:01:43;;;;;;;7.68;4.18;;;;;;;;;;4949659;29;20058;-56
2023/12/09 14:04:09;;;;;;;6.60;3.60;;;;;;;;;;4951994;29;20058;-56
2023/12/09 14:06:35;;;;;;;9.27;4.20;;;;;;;;;;4953349;29;20046;-54
2023/12/09 14:09:02;;;;;;;6.40;3.67;;;;;;;;;;4948281;29;20058;-56
2023/12/09 14:11:28;;;;;;;7.70;4.20;;;;;;;;;;4939063;29;20590;-53
2023/12/09 14:13:54;;;;;;;6.28;4.07;;;;;;;;;;4952879;29;20051;-56
2023/12/09 14:16:21;;;;;;;7.50;4.40;;;;;;;;;;4951836;29;20058;-55
2023/12/09 14:18:47;;;;;;;7.28;4.15;;;;;;;;;;4947806;29;20063;-56
2023/12/09 14:21:13;;;;;;;7.88;4.65;;;;;;;;;;4951358;29;20043;-55
2023/12/09 14:23:40;;;;;;;7.85;4.15;;;;;;;;;;4951699;29;20051;-55
2023/12/09 14:26:06;;;;;;;7.68;4.47;;;;;;;;;;4951375;29;20042;-55
2023/12/09 14:28:32;;;;;;;7.75;4.30;;;;;;;;;;4951712;29;20447;-56
2023/12/09 14:30:58;;;;;;;7.82;4.82;;;;;;;;;;4952153;29;20055;-55
2023/12/09 14:33:25;;;;;;;6.82;4.18;;;;;;;;;;4951444;29;20042;-56
2023/12/09 14:35:51;;;;;;;9.10;4.10;;;;;;;;;;4951096;29;20610;-56
2023/12/09 14:38:18;;;;;;;5.63;3.78;;;;;;;;;;4952000;29;20479;-56
2023/12/09 14:40:45;;;;;;;8.85;4.70;;;;;;;;;;4948009;28;20050;-56